Time;durP1;ratioP1;P1;durP2;ratioP2;P2;SDS_P1;SDS_P2;PMS_P1;PMS_P2;Temp;Humidity;BMP_temperature;BMP_pressure;BME280_temperature;BME280_humidity;BME280_pressure;Samples;Min_cycle;Max_cycle;Signal;HPM_P1;HPM_P2
2023/07/24 00:01:50;;;;;;;7.00;4.97;;;18.10;99.90;;;;;;5030517;28;20593;-61
2023/07/24 00:04:16;;;;;;;6.82;4.88;;;18.10;99.90;;;;;;5029384;28;20038;-60
2023/07/24 00:06:41;;;;;;;17.83;4.57;;;18.10;99.90;;;;;;5032749;28;20400;-60
2023/07/24 00:09:07;;;;;;;14.40;4.88;;;18.10;99.90;;;;;;5037663;28;20493;-62
2023/07/24 00:11:32;;;;;;;8.95;4.68;;;18.10;99.90;;;;;;5037002;28;20044;-60
2023/07/24 00:13:58;;;;;;;12.05;4.90;;;18.10;99.90;;;;;;5022459;28;20511;-61
2023/07/24 00:16:23;;;;;;;9.35;4.70;;;18.00;99.90;;;;;;5034775;28;20048;-59
2023/07/24 00:18:49;;;;;;;10.43;3.97;;;18.00;99.90;;;;;;5023753;28;20034;-61
2023/07/24 00:21:14;;;;;;;6.32;4.57;;;18.00;99.90;;;;;;5034305;28;20043;-60
2023/07/24 00:23:40;;;;;;;7.63;4.50;;;18.00;99.90;;;;;;5035865;28;20029;-58
2023/07/24 00:26:05;;;;;;;11.27;4.60;;;17.90;99.90;;;;;;5032336;28;20034;-59
2023/07/24 00:28:32;;;;;;;14.68;4.57;;;18.00;99.90;;;;;;5022151;28;20031;-62
2023/07/24 00:30:57;;;;;;;11.60;4.65;;;18.00;99.90;;;;;;5030964;28;20032;-62
2023/07/24 00:33:23;;;;;;;7.15;4.40;;;18.00;99.90;;;;;;5024839;28;20034;-62
2023/07/24 00:35:48;;;;;;;11.38;4.85;;;18.00;99.90;;;;;;5034352;28;20075;-61
2023/07/24 00:38:14;;;;;;;6.30;3.97;;;18.00;99.90;;;;;;5033861;28;20435;-61
2023/07/24 00:40:39;;;;;;;9.88;4.88;;;18.00;99.90;;;;;;5035179;28;20056;-63
2023/07/24 00:43:05;;;;;;;11.75;4.72;;;17.90;99.90;;;;;;5027916;28;20112;-63
2023/07/24 00:45:30;;;;;;;6.78;4.20;;;17.90;99.90;;;;;;5031711;28;20060;-62
2023/07/24 00:47:56;;;;;;;11.63;4.97;;;17.90;99.90;;;;;;5023689;28;20025;-63
2023/07/24 00:50:22;;;;;;;10.23;4.03;;;17.90;99.90;;;;;;5050817;28;21834;-63
2023/07/24 00:52:48;;;;;;;10.68;4.40;;;17.90;99.90;;;;;;5035017;28;20025;-63
2023/07/24 00:55:16;;;;;;;10.82;4.93;;;17.80;99.90;;;;;;5035305;28;20134;-61
2023/07/24 00:57:42;;;;;;;12.13;4.70;;;17.80;99.90;;;;;;5028497;28;20112;-62
2023/07/24 01:00:08;;;;;;;7.07;4.10;;;17.80;99.90;;;;;;5023062;28;20064;-62
2023/07/24 01:02:34;;;;;;;9.80;4.20;;;17.70;99.90;;;;;;5031583;28;20061;-61
2023/07/24 01:05:00;;;;;;;7.85;4.47;;;17.70;99.90;;;;;;5034434;28;20375;-62
2023/07/24 01:07:25;;;;;;;9.05;4.20;;;17.70;99.90;;;;;;5034603;28;20040;-62
2023/07/24 01:09:51;;;;;;;8.18;4.43;;;17.70;99.90;;;;;;5032351;28;20026;-62
2023/07/24 01:12:34;;;;;;;6.70;4.43;;;17.70;99.90;;;;;;5032773;28;20021;-61
2023/07/24 01:15:14;;;;;;;6.30;4.65;;;17.70;99.90;;;;;;5029352;28;20041;-62
2023/07/24 01:17:47;;;;;;;7.85;4.57;;;17.70;99.90;;;;;;5032832;28;20032;-62
2023/07/24 01:20:16;;;;;;;9.32;4.18;;;17.70;99.90;;;;;;5028438;28;20029;-59
2023/07/24 01:23:05;;;;;;;6.40;4.07;;;17.60;99.90;;;;;;5034028;28;20049;-58
2023/07/24 01:25:37;;;;;;;7.32;4.25;;;17.50;99.90;;;;;;5025103;28;20489;-59
2023/07/24 01:28:08;;;;;;;8.40;4.43;;;17.50;99.90;;;;;;5038389;28;20025;-59
2023/07/24 01:30:33;;;;;;;9.43;4.28;;;17.50;99.90;;;;;;5028024;28;20026;-60
2023/07/24 01:32:59;;;;;;;16.27;4.75;;;17.40;99.90;;;;;;5027807;28;20438;-59
2023/07/24 01:35:26;;;;;;;7.35;5.18;;;17.40;99.90;;;;;;5025926;28;20032;-59
2023/07/24 01:37:52;;;;;;;8.98;5.05;;;17.40;99.90;;;;;;5033763;28;20022;-58
2023/07/24 01:40:19;;;;;;;7.25;4.57;;;17.40;99.90;;;;;;5028539;28;20030;-56
2023/07/24 01:42:44;;;;;;;10.50;4.07;;;17.40;99.90;;;;;;5029752;28;20060;-61
2023/07/24 01:45:11;;;;;;;9.32;5.22;;;17.40;99.90;;;;;;5029932;28;20053;-62
2023/07/24 01:47:37;;;;;;;6.75;4.22;;;17.40;99.90;;;;;;5028967;28;20037;-61
2023/07/24 01:50:03;;;;;;;10.02;4.70;;;17.40;99.90;;;;;;5030758;28;20018;-62
2023/07/24 01:52:29;;;;;;;9.70;4.68;;;17.50;99.90;;;;;;5033076;28;20116;-61
2023/07/24 01:54:54;;;;;;;7.85;4.38;;;17.50;99.90;;;;;;5033299;28;20032;-62
2023/07/24 01:57:20;;;;;;;8.32;4.68;;;17.50;99.90;;;;;;5025951;28;20022;-62
2023/07/24 01:59:45;;;;;;;8.82;4.90;;;17.60;99.90;;;;;;5026334;28;20021;-59
2023/07/24 02:02:11;;;;;;;9.73;4.53;;;17.60;99.90;;;;;;5027986;28;20539;-62
2023/07/24 02:04:36;;;;;;;13.98;4.65;;;17.70;99.90;;;;;;5033209;28;20025;-60
2023/07/24 02:07:02;;;;;;;7.28;3.95;;;17.70;99.90;;;;;;5034723;28;20034;-62
2023/07/24 02:09:28;;;;;;;7.85;4.68;;;17.70;99.90;;;;;;5039231;28;20056;-62
2023/07/24 02:11:53;;;;;;;12.80;4.55;;;17.70;99.90;;;;;;5031279;28;20021;-61
2023/07/24 02:14:20;;;;;;;13.50;4.65;;;17.80;99.90;;;;;;5038769;28;20135;-61
2023/07/24 02:16:46;;;;;;;10.10;4.78;;;17.80;99.90;;;;;;5034086;28;20018;-62
2023/07/24 02:19:11;;;;;;;13.13;4.45;;;17.80;99.90;;;;;;5032912;28;20041;-58
2023/07/24 02:21:37;;;;;;;7.93;4.60;;;17.80;99.90;;;;;;5035080;28;20025;-57
2023/07/24 02:24:03;;;;;;;8.68;5.43;;;17.80;99.90;;;;;;5036157;28;20472;-61
2023/07/24 02:26:29;;;;;;;13.40;5.32;;;17.80;99.90;;;;;;5029901;28;20160;-62
2023/07/24 02:28:54;;;;;;;14.90;5.43;;;17.80;99.90;;;;;;5035116;28;20096;-62
2023/07/24 02:31:20;;;;;;;11.20;5.03;;;17.80;99.90;;;;;;5037071;28;20025;-61
2023/07/24 02:33:45;;;;;;;8.00;4.82;;;17.80;99.90;;;;;;5035019;28;20499;-63
2023/07/24 02:36:11;;;;;;;11.35;4.93;;;17.80;99.90;;;;;;5038857;28;20036;-60
2023/07/24 02:38:37;;;;;;;9.90;4.82;;;17.80;99.90;;;;;;5033646;28;20026;-62
2023/07/24 02:41:02;;;;;;;11.90;5.13;;;17.80;99.90;;;;;;5027812;28;20032;-62
2023/07/24 02:43:28;;;;;;;10.52;4.47;;;17.70;99.90;;;;;;5033440;28;20108;-62
2023/07/24 02:45:53;;;;;;;12.05;5.13;;;17.70;99.90;;;;;;5032248;28;20044;-61
2023/07/24 02:48:19;;;;;;;9.10;4.93;;;17.70;99.90;;;;;;5036730;28;20033;-64
2023/07/24 02:50:47;;;;;;;9.55;5.13;;;17.70;99.90;;;;;;5040356;28;20064;-63
2023/07/24 02:53:13;;;;;;;7.32;4.80;;;17.70;99.90;;;;;;5030474;28;20068;-63
2023/07/24 02:55:42;;;;;;;8.43;4.97;;;17.80;99.90;;;;;;5030463;28;20061;-63
2023/07/24 02:58:08;;;;;;;12.98;6.05;;;17.80;99.90;;;;;;5035431;28;20083;-63
2023/07/24 03:00:34;;;;;;;9.60;4.88;;;17.70;99.90;;;;;;5029336;28;20408;-63
2023/07/24 03:02:59;;;;;;;12.88;5.75;;;17.70;99.90;;;;;;5029821;28;20542;-62
2023/07/24 03:05:25;;;;;;;10.50;5.70;;;17.70;99.90;;;;;;5037231;28;20100;-62
2023/07/24 03:07:50;;;;;;;10.25;5.13;;;17.70;99.90;;;;;;5036736;28;20028;-62
2023/07/24 03:10:16;;;;;;;12.82;5.78;;;17.70;99.90;;;;;;5029342;28;20121;-63
2023/07/24 03:12:41;;;;;;;9.48;5.60;;;17.70;99.90;;;;;;5031211;28;20017;-63
2023/07/24 03:15:07;;;;;;;14.05;5.40;;;17.70;99.90;;;;;;5027951;28;20075;-61
2023/07/24 03:17:33;;;;;;;9.23;5.78;;;17.70;99.90;;;;;;5029058;28;20056;-62
2023/07/24 03:19:59;;;;;;;9.48;5.70;;;17.70;99.90;;;;;;5034554;28;20091;-62
2023/07/24 03:22:25;;;;;;;12.65;5.63;;;17.70;99.90;;;;;;5036660;28;20049;-62
2023/07/24 03:24:50;;;;;;;15.05;7.03;;;17.70;99.90;;;;;;5031681;28;20473;-60
2023/07/24 03:27:16;;;;;;;11.23;5.60;;;17.70;99.90;;;;;;5027900;28;20026;-61
2023/07/24 03:29:41;;;;;;;10.68;5.55;;;17.70;99.90;;;;;;5037376;28;20033;-63
2023/07/24 03:32:07;;;;;;;11.55;6.40;;;17.70;99.90;;;;;;5032789;28;20029;-61
2023/07/24 03:34:32;;;;;;;11.38;5.68;;;17.60;99.90;;;;;;5035124;28;20025;-63
2023/07/24 03:36:58;;;;;;;13.90;5.72;;;17.60;99.90;;;;;;5032392;28;20632;-62
2023/07/24 03:39:23;;;;;;;8.57;5.28;;;17.50;99.90;;;;;;5031900;28;20030;-62
2023/07/24 03:41:49;;;;;;;13.20;5.70;;;17.50;99.90;;;;;;5033529;28;20384;-63
2023/07/24 03:44:15;;;;;;;10.05;5.00;;;17.50;99.90;;;;;;5031623;28;20021;-62
2023/07/24 03:46:40;;;;;;;12.65;5.68;;;17.40;99.90;;;;;;5029318;28;20397;-63
2023/07/24 03:49:06;;;;;;;14.02;6.43;;;17.40;99.90;;;;;;5037579;28;20053;-63
2023/07/24 03:51:33;;;;;;;11.43;5.65;;;17.40;99.90;;;;;;5031660;28;20462;-63
2023/07/24 03:53:58;;;;;;;9.90;5.38;;;17.50;99.90;;;;;;5035729;28;20021;-63
2023/07/24 03:56:24;;;;;;;11.43;5.85;;;17.40;99.90;;;;;;5029330;28;20382;-62
2023/07/24 03:58:49;;;;;;;11.13;5.95;;;17.50;99.90;;;;;;5028887;28;20033;-60
2023/07/24 04:01:15;;;;;;;12.93;5.53;;;17.50;99.90;;;;;;5037190;28;20029;-60
2023/07/24 04:03:40;;;;;;;24.50;6.80;;;17.50;99.90;;;;;;5032104;28;20405;-61
2023/07/24 04:06:06;;;;;;;12.32;5.97;;;17.50;99.90;;;;;;5029615;28;20037;-62
2023/07/24 04:08:31;;;;;;;16.45;6.15;;;17.50;99.90;;;;;;5031274;28;20064;-62
2023/07/24 04:10:57;;;;;;;10.50;5.65;;;17.60;99.90;;;;;;5030905;28;20063;-61
2023/07/24 04:13:23;;;;;;;10.35;5.72;;;17.60;99.90;;;;;;5033194;28;20546;-61
2023/07/24 04:15:48;;;;;;;14.63;5.80;;;17.60;99.90;;;;;;5034567;28;20499;-61
2023/07/24 04:18:14;;;;;;;12.60;6.40;;;17.60;99.90;;;;;;5030368;28;20040;-60
2023/07/24 04:20:39;;;;;;;14.25;6.28;;;17.70;99.90;;;;;;5035789;28;20029;-61
2023/07/24 04:23:05;;;;;;;13.27;5.97;;;17.70;99.90;;;;;;5035607;28;20061;-62
2023/07/24 04:25:30;;;;;;;8.82;5.35;;;17.70;99.90;;;;;;5030180;28;20136;-62
2023/07/24 04:27:56;;;;;;;13.65;6.38;;;17.60;99.90;;;;;;5034942;28;20429;-62
2023/07/24 04:30:21;;;;;;;15.82;5.85;;;17.70;99.90;;;;;;5031677;28;20557;-59
2023/07/24 04:32:47;;;;;;;15.90;6.15;;;17.70;99.90;;;;;;5033620;28;20053;-62
2023/07/24 04:35:12;;;;;;;10.88;4.90;;;17.70;99.90;;;;;;5031033;28;20040;-59
2023/07/24 04:37:38;;;;;;;14.57;5.85;;;17.70;99.90;;;;;;5032391;28;20113;-61
2023/07/24 04:40:05;;;;;;;16.05;6.60;;;17.70;99.90;;;;;;5034832;28;20029;-61
2023/07/24 04:42:30;;;;;;;10.90;6.38;;;17.70;99.90;;;;;;5035607;28;20029;-59
2023/07/24 04:44:56;;;;;;;17.45;5.93;;;17.70;99.90;;;;;;5034336;28;20048;-62
2023/07/24 04:47:22;;;;;;;10.82;6.75;;;17.80;99.90;;;;;;5030059;28;20018;-61
2023/07/24 04:49:47;;;;;;;17.05;6.10;;;17.80;99.90;;;;;;5033935;28;20476;-61
2023/07/24 04:52:13;;;;;;;13.10;6.38;;;17.80;99.90;;;;;;5030280;28;20506;-64
2023/07/24 04:54:38;;;;;;;11.82;6.68;;;17.80;99.90;;;;;;5031883;28;20074;-63
2023/07/24 04:57:04;;;;;;;9.02;5.30;;;17.80;99.90;;;;;;5032405;28;20500;-63
2023/07/24 04:59:30;;;;;;;8.30;5.53;;;17.80;99.90;;;;;;5029119;28;20083;-58
2023/07/24 05:01:55;;;;;;;11.82;6.13;;;17.80;99.90;;;;;;5034990;28;20485;-62
2023/07/24 05:04:21;;;;;;;12.93;6.22;;;17.80;99.90;;;;;;5029751;28;20078;-63
2023/07/24 05:06:47;;;;;;;11.35;6.13;;;17.80;99.90;;;;;;5031097;28;20025;-61
2023/07/24 05:09:12;;;;;;;15.98;6.00;;;17.90;99.90;;;;;;5033527;28;20032;-64
2023/07/24 05:11:38;;;;;;;9.30;5.97;;;17.90;99.90;;;;;;5033060;28;20018;-61
2023/07/24 05:14:03;;;;;;;13.75;5.82;;;17.90;99.90;;;;;;5032653;28;20095;-64
2023/07/24 05:16:29;;;;;;;12.23;6.47;;;17.90;99.90;;;;;;5034093;28;20053;-62
2023/07/24 05:18:54;;;;;;;11.90;6.05;;;18.00;99.90;;;;;;5030990;28;20457;-63
2023/07/24 05:21:20;;;;;;;11.52;6.50;;;18.00;99.90;;;;;;5031228;28;20447;-61
2023/07/24 05:23:45;;;;;;;11.95;6.32;;;18.10;99.90;;;;;;5031724;28;20025;-60
2023/07/24 05:26:11;;;;;;;11.52;6.05;;;18.20;99.90;;;;;;5031388;28;20413;-63
2023/07/24 05:28:36;;;;;;;10.77;5.95;;;18.30;99.90;;;;;;5031049;28;20048;-63
2023/07/24 05:31:03;;;;;;;13.90;6.43;;;18.40;99.90;;;;;;5036888;28;20346;-62
2023/07/24 05:33:29;;;;;;;12.30;5.90;;;18.50;99.90;;;;;;5031035;28;20076;-62
2023/07/24 05:36:04;;;;;;;12.57;6.80;;;18.50;99.90;;;;;;5033197;28;20034;-61
2023/07/24 05:38:30;;;;;;;19.05;7.43;;;18.60;99.90;;;;;;5034750;28;20033;-62
2023/07/24 05:41:01;;;;;;;14.45;7.07;;;18.60;99.90;;;;;;5033558;28;20033;-63
2023/07/24 05:43:27;;;;;;;22.02;7.03;;;18.60;99.90;;;;;;5037297;28;20057;-62
2023/07/24 05:45:54;;;;;;;16.33;6.35;;;18.60;99.90;;;;;;5038472;28;20374;-62
2023/07/24 05:48:20;;;;;;;10.93;6.57;;;18.60;99.90;;;;;;5036871;28;20079;-62
2023/07/24 05:50:47;;;;;;;11.88;6.30;;;18.60;99.90;;;;;;5038858;28;20025;-61
2023/07/24 05:53:13;;;;;;;13.10;6.60;;;18.60;99.90;;;;;;5033464;28;20028;-63
2023/07/24 05:55:38;;;;;;;10.00;5.28;;;18.60;99.90;;;;;;5041133;28;20029;-59
2023/07/24 05:58:04;;;;;;;11.90;5.57;;;18.60;99.90;;;;;;5031610;28;20022;-62
2023/07/24 06:00:29;;;;;;;10.95;5.50;;;18.70;99.90;;;;;;5032962;28;20409;-59
2023/07/24 06:02:55;;;;;;;12.90;5.18;;;18.70;99.90;;;;;;5038171;28;20364;-62
2023/07/24 06:05:20;;;;;;;10.68;4.97;;;18.80;99.90;;;;;;5033987;28;20028;-60
2023/07/24 06:07:47;;;;;;;15.27;6.60;;;18.80;99.90;;;;;;5033701;28;20025;-62
2023/07/24 06:10:13;;;;;;;10.27;4.90;;;18.90;99.90;;;;;;5036219;28;20028;-61
2023/07/24 06:12:38;;;;;;;16.23;5.32;;;19.00;99.90;;;;;;5037448;28;20025;-61
2023/07/24 06:15:04;;;;;;;18.60;6.13;;;19.10;99.90;;;;;;5034101;28;20070;-61
2023/07/24 06:17:30;;;;;;;20.23;5.82;;;19.20;99.90;;;;;;5035650;28;20025;-63
2023/07/24 06:19:56;;;;;;;13.20;5.03;;;19.20;99.90;;;;;;5038640;28;20096;-63
2023/07/24 06:22:22;;;;;;;12.32;5.50;;;19.20;99.90;;;;;;5039805;28;20108;-63
2023/07/24 06:24:48;;;;;;;14.38;4.97;;;19.20;99.90;;;;;;5031620;28;20432;-63
2023/07/24 06:27:13;;;;;;;18.08;5.10;;;19.30;99.90;;;;;;5037904;28;20129;-62
2023/07/24 06:29:39;;;;;;;16.73;9.55;;;19.20;99.90;;;;;;5031194;28;20033;-60
2023/07/24 06:32:05;;;;;;;19.40;5.97;;;19.20;99.90;;;;;;5033137;28;20025;-63
2023/07/24 06:34:30;;;;;;;12.45;5.93;;;19.20;99.90;;;;;;5040889;28;20049;-62
2023/07/24 06:36:56;;;;;;;11.98;4.95;;;19.20;99.90;;;;;;5035719;28;20056;-63
2023/07/24 06:39:21;;;;;;;13.02;4.80;;;19.20;99.90;;;;;;5040331;28;20032;-63
2023/07/24 06:41:47;;;;;;;10.65;5.60;;;19.20;99.90;;;;;;5036866;28;20040;-63
2023/07/24 06:44:13;;;;;;;9.25;5.18;;;19.30;99.90;;;;;;5033553;28;20025;-60
2023/07/24 06:46:38;;;;;;;13.68;5.13;;;19.30;99.90;;;;;;5033570;28;20092;-63
2023/07/24 06:49:04;;;;;;;8.48;4.60;;;19.20;99.90;;;;;;5030832;28;20100;-62
2023/07/24 06:51:29;;;;;;;10.70;5.57;;;19.20;99.90;;;;;;5031880;28;20045;-63
2023/07/24 06:53:55;;;;;;;12.20;4.75;;;19.30;99.90;;;;;;5032168;28;20105;-62
2023/07/24 06:56:20;;;;;;;8.07;4.00;;;19.30;99.90;;;;;;5033310;28;20095;-61
2023/07/24 06:58:46;;;;;;;10.75;5.03;;;19.40;99.90;;;;;;5029995;28;20018;-63
2023/07/24 07:01:11;;;;;;;8.75;4.80;;;19.50;99.90;;;;;;5030693;28;20095;-61
2023/07/24 07:03:37;;;;;;;10.10;5.78;;;19.60;99.90;;;;;;5031199;28;20072;-62
2023/07/24 07:06:03;;;;;;;13.95;4.68;;;19.70;99.90;;;;;;5041907;28;20044;-64
2023/07/24 07:08:31;;;;;;;11.45;4.45;;;19.70;99.90;;;;;;5028845;28;20057;-62
2023/07/24 07:10:58;;;;;;;13.57;4.53;;;19.80;99.90;;;;;;5032148;28;20061;-63
2023/07/24 07:13:24;;;;;;;10.38;3.85;;;19.80;99.90;;;;;;5028502;28;20417;-59
2023/07/24 07:15:49;;;;;;;14.00;4.93;;;19.90;99.90;;;;;;5032637;28;20033;-62
2023/07/24 07:18:15;;;;;;;8.35;3.78;;;19.90;99.90;;;;;;5036902;28;20091;-61
2023/07/24 07:20:48;;;;;;;11.27;3.70;;;19.90;99.90;;;;;;5034849;28;20030;-60
2023/07/24 07:23:14;;;;;;;13.18;3.35;;;20.00;99.90;;;;;;5033797;28;20033;-64
2023/07/24 07:25:39;;;;;;;5.25;3.50;;;20.00;99.90;;;;;;5037873;28;20567;-62
2023/07/24 07:28:05;;;;;;;7.97;3.33;;;19.90;99.90;;;;;;5031621;28;20053;-61
2023/07/24 07:30:31;;;;;;;6.22;3.35;;;19.90;99.90;;;;;;5028864;28;20103;-62
2023/07/24 07:32:56;;;;;;;10.88;3.53;;;19.90;99.90;;;;;;5029742;28;20029;-61
2023/07/24 07:35:22;;;;;;;11.45;3.85;;;19.90;99.90;;;;;;5034689;28;20029;-63
2023/07/24 07:37:47;;;;;;;6.07;3.50;;;19.90;99.90;;;;;;5030911;28;20028;-63
2023/07/24 07:40:13;;;;;;;9.63;4.03;;;19.90;99.90;;;;;;5037801;28;20400;-63
2023/07/24 07:42:38;;;;;;;12.70;3.67;;;20.00;99.90;;;;;;5043629;28;20028;-63
2023/07/24 07:45:04;;;;;;;9.25;3.42;;;19.90;99.90;;;;;;5030174;28;20037;-62
2023/07/24 07:47:30;;;;;;;5.85;3.15;;;20.00;99.90;;;;;;5033731;28;20622;-62
2023/07/24 07:49:56;;;;;;;12.52;6.70;;;20.10;99.90;;;;;;5019002;28;20116;-62
2023/07/24 07:52:22;;;;;;;5.57;3.40;;;20.20;99.90;;;;;;5054822;28;20028;-60
2023/07/24 07:54:48;;;;;;;10.15;3.72;;;20.20;99.90;;;;;;5042232;28;20473;-60
2023/07/24 07:57:14;;;;;;;8.70;3.63;;;20.30;99.90;;;;;;5032465;28;20079;-61
2023/07/24 07:59:40;;;;;;;7.32;3.83;;;20.40;99.90;;;;;;5032224;28;20112;-62
2023/07/24 08:02:06;;;;;;;9.90;3.60;;;20.40;99.90;;;;;;5038260;28;20112;-63
2023/07/24 08:04:31;;;;;;;7.00;3.85;;;20.50;99.90;;;;;;5031804;28;20026;-63
2023/07/24 08:06:57;;;;;;;7.68;3.78;;;20.60;99.90;;;;;;5028167;28;20072;-62
2023/07/24 08:09:24;;;;;;;9.13;4.40;;;20.70;99.90;;;;;;5038926;28;20052;-63
2023/07/24 08:11:50;;;;;;;6.40;3.85;;;20.80;99.90;;;;;;5029291;28;20064;-62
2023/07/24 08:14:16;;;;;;;10.02;3.90;;;20.90;99.90;;;;;;5030718;28;20551;-63
2023/07/24 08:16:41;;;;;;;9.95;4.43;;;21.00;99.90;;;;;;5030295;28;20037;-62
2023/07/24 08:19:07;;;;;;;9.30;4.20;;;21.10;99.90;;;;;;5031648;28;20036;-62
2023/07/24 08:21:32;;;;;;;126.15;78.75;;;21.00;99.90;;;;;;5029517;28;20084;-63
2023/07/24 08:23:58;;;;;;;29.58;17.30;;;21.10;99.90;;;;;;5031647;28;20029;-63
2023/07/24 08:26:26;;;;;;;10.65;4.53;;;21.10;99.90;;;;;;5028276;28;20080;-62
2023/07/24 08:28:52;;;;;;;7.05;4.28;;;21.00;99.90;;;;;;5029081;28;20021;-61
2023/07/24 08:31:18;;;;;;;8.65;4.13;;;20.90;99.90;;;;;;5035649;28;20032;-58
2023/07/24 08:33:43;;;;;;;6.13;3.83;;;20.90;99.90;;;;;;5037598;28;20030;-60
2023/07/24 08:36:11;;;;;;;8.73;4.50;;;20.90;99.90;;;;;;5033104;28;20068;-61
2023/07/24 08:38:37;;;;;;;12.88;3.70;;;20.90;99.90;;;;;;5035515;28;20022;-61
2023/07/24 08:41:07;;;;;;;12.30;4.30;;;21.00;99.90;;;;;;5027925;28;20502;-62
2023/07/24 08:43:34;;;;;;;6.60;3.63;;;21.10;99.90;;;;;;5031338;28;20090;-62
2023/07/24 08:46:00;;;;;;;7.47;3.78;;;21.30;99.90;;;;;;5043079;28;20044;-63
2023/07/24 08:48:31;;;;;;;5.93;3.47;;;21.40;99.90;;;;;;5032099;28;20049;-63
2023/07/24 08:50:59;;;;;;;6.15;3.45;;;21.50;99.90;;;;;;5031615;28;20040;-62
2023/07/24 08:53:25;;;;;;;4.95;3.10;;;21.60;99.90;;;;;;5036121;28;20029;-62
2023/07/24 08:55:54;;;;;;;5.95;3.20;;;21.60;99.90;;;;;;5028334;28;20136;-61
2023/07/24 08:58:19;;;;;;;5.63;3.47;;;21.70;99.90;;;;;;5037261;28;20112;-62
2023/07/24 09:00:45;;;;;;;6.70;3.08;;;21.70;99.90;;;;;;5032421;28;20060;-62
2023/07/24 09:03:11;;;;;;;6.80;3.35;;;21.70;99.90;;;;;;5025894;28;20080;-62
2023/07/24 09:05:36;;;;;;;5.43;2.95;;;21.60;99.90;;;;;;5033852;28;20523;-60
2023/07/24 09:08:02;;;;;;;8.20;3.22;;;21.60;99.90;;;;;;5050364;28;20025;-61
2023/07/24 09:10:28;;;;;;;9.88;3.80;;;21.50;99.90;;;;;;5033786;28;20032;-63
2023/07/24 09:12:54;;;;;;;6.25;3.08;;;21.40;99.90;;;;;;5028949;28;20024;-63
2023/07/24 09:15:20;;;;;;;5.78;3.60;;;21.40;99.90;;;;;;5037280;28;20034;-63
2023/07/24 09:17:53;;;;;;;11.95;3.25;;;21.50;99.90;;;;;;5025517;28;20029;-60
2023/07/24 09:20:19;;;;;;;5.85;3.03;;;21.50;99.90;;;;;;5037966;28;20591;-62
2023/07/24 09:22:49;;;;;;;9.88;3.05;;;21.60;99.90;;;;;;5033314;28;20036;-61
2023/07/24 09:25:15;;;;;;;4.95;3.13;;;21.60;99.90;;;;;;5035525;28;20413;-61
2023/07/24 09:27:40;;;;;;;4.85;3.10;;;21.60;99.90;;;;;;5034721;28;20026;-62
2023/07/24 09:30:19;;;;;;;6.00;3.30;;;21.60;99.90;;;;;;5029189;28;20057;-62
2023/07/24 09:32:52;;;;;;;7.03;2.97;;;21.50;99.90;;;;;;5040091;28;20026;-63
2023/07/24 09:35:19;;;;;;;4.40;2.85;;;21.50;99.90;;;;;;5025616;28;20196;-61
2023/07/24 09:37:45;;;;;;;5.30;2.42;;;21.60;99.90;;;;;;5041108;28;20057;-63
2023/07/24 09:40:11;;;;;;;7.47;2.95;;;21.70;99.90;;;;;;5024189;28;20030;-63
2023/07/24 09:42:39;;;;;;;3.88;2.60;;;21.60;99.90;;;;;;5033799;28;20036;-62
2023/07/24 09:45:06;;;;;;;4.18;2.70;;;21.60;99.90;;;;;;5027499;28;20033;-62
2023/07/24 09:47:31;;;;;;;8.60;3.30;;;21.60;99.90;;;;;;5036641;28;20086;-62
2023/07/24 09:49:59;;;;;;;4.88;2.50;;;21.70;99.90;;;;;;5034746;28;20026;-60
2023/07/24 09:52:28;;;;;;;6.43;2.72;;;21.80;99.90;;;;;;5026453;28;20388;-63
2023/07/24 09:55:21;;;;;;;6.90;2.63;;;22.00;99.90;;;;;;5031439;28;20029;-61
2023/07/24 09:57:48;;;;;;;9.90;2.60;;;22.00;99.90;;;;;;5026173;28;20171;-60
2023/07/24 10:00:14;;;;;;;6.28;2.85;;;22.10;99.90;;;;;;5033359;28;20406;-62
2023/07/24 10:02:41;;;;;;;7.53;2.88;;;22.10;99.90;;;;;;5027307;28;20040;-61
2023/07/24 10:05:07;;;;;;;4.82;2.70;;;22.20;99.90;;;;;;5033253;28;20041;-60
2023/07/24 10:07:32;;;;;;;4.50;2.75;;;22.30;99.90;;;;;;5037398;28;20143;-61
2023/07/24 10:09:58;;;;;;;6.47;3.70;;;22.20;99.90;;;;;;5035120;28;20030;-62
2023/07/24 10:12:27;;;;;;;7.53;3.20;;;22.30;99.90;;;;;;5028694;28;20029;-62
2023/07/24 10:14:55;;;;;;;7.88;2.90;;;22.50;99.90;;;;;;5035220;28;20548;-62
2023/07/24 10:17:37;;;;;;;4.20;2.78;;;22.90;99.90;;;;;;5033984;28;20057;-62
2023/07/24 10:20:07;;;;;;;3.67;2.40;;;23.00;99.90;;;;;;5035277;28;20496;-62
2023/07/24 10:22:33;;;;;;;10.55;2.47;;;23.10;99.90;;;;;;5022949;28;20031;-61
2023/07/24 10:24:59;;;;;;;5.18;2.63;;;23.20;99.90;;;;;;5032387;28;20032;-61
2023/07/24 10:27:25;;;;;;;4.80;2.28;;;23.30;99.90;;;;;;5040260;28;20169;-60
2023/07/24 10:30:00;;;;;;;6.00;2.80;;;23.20;99.90;;;;;;5030192;28;20025;-62
2023/07/24 10:32:25;;;;;;;5.00;2.80;;;23.40;99.90;;;;;;5040622;28;20047;-62
2023/07/24 10:35:09;;;;;;;7.97;3.03;;;23.60;99.90;;;;;;5038503;28;20456;-62
2023/07/24 10:37:37;;;;;;;7.22;3.80;;;23.60;99.90;;;;;;5028266;28;20092;-62
2023/07/24 10:40:04;;;;;;;4.68;2.60;;;23.70;99.90;;;;;;5044662;28;20017;-61
2023/07/24 10:42:30;;;;;;;3.78;2.53;;;23.40;99.90;;;;;;5037103;28;20025;-62
2023/07/24 10:45:08;;;;;;;4.90;3.00;;;23.30;99.90;;;;;;5042215;28;20048;-62
2023/07/24 10:47:34;;;;;;;3.50;2.35;;;23.20;99.90;;;;;;5036628;28;20116;-62
2023/07/24 10:50:03;;;;;;;6.20;2.70;;;23.20;99.90;;;;;;5041315;28;20120;-61
2023/07/24 10:52:32;;;;;;;12.88;3.45;;;23.00;99.90;;;;;;5034976;28;20045;-62
2023/07/24 10:55:04;;;;;;;5.57;3.22;;;22.90;99.90;;;;;;5029250;28;20036;-63
2023/07/24 10:57:30;;;;;;;8.25;3.67;;;22.90;99.90;;;;;;5037535;28;20025;-63
2023/07/24 10:59:56;;;;;;;6.22;3.15;;;22.90;99.90;;;;;;5032359;28;20113;-62
2023/07/24 11:02:21;;;;;;;5.43;3.35;;;22.90;99.90;;;;;;5039450;28;20107;-63
2023/07/24 11:04:47;;;;;;;7.30;2.92;;;22.90;99.90;;;;;;5025376;28;20108;-61
2023/07/24 11:07:13;;;;;;;4.75;3.17;;;23.10;99.90;;;;;;5031079;28;20025;-62
2023/07/24 11:09:40;;;;;;;6.55;3.35;;;23.40;99.90;;;;;;5028849;28;20021;-62
2023/07/24 11:12:16;;;;;;;6.57;3.20;;;23.50;99.90;;;;;;5031774;28;20129;-61
2023/07/24 11:14:55;;;;;;;8.32;2.60;;;23.80;99.90;;;;;;5033791;28;20033;-61
2023/07/24 11:17:21;;;;;;;6.75;3.13;;;24.30;99.90;;;;;;5042709;28;20530;-59
2023/07/24 11:19:47;;;;;;;5.53;3.72;;;24.50;99.90;;;;;;5024908;28;20033;-63
2023/07/24 11:22:12;;;;;;;6.43;2.78;;;24.50;99.90;;;;;;5033880;28;20486;-63
2023/07/24 11:24:46;;;;;;;4.60;2.65;;;24.50;99.90;;;;;;5030262;28;20029;-63
2023/07/24 11:27:16;;;;;;;3.78;2.40;;;24.40;99.90;;;;;;5036474;28;20021;-62
2023/07/24 11:29:48;;;;;;;6.65;2.88;;;24.70;99.90;;;;;;5034274;28;20033;-61
2023/07/24 11:32:16;;;;;;;3.63;2.60;;;25.10;99.90;;;;;;5045507;28;20076;-61
2023/07/24 11:34:42;;;;;;;3.35;2.55;;;25.10;99.90;;;;;;5034472;28;20028;-63
2023/07/24 11:37:08;;;;;;;5.82;2.45;;;25.20;99.90;;;;;;5020107;28;20029;-61
2023/07/24 11:39:33;;;;;;;9.07;2.25;;;25.50;99.90;;;;;;5036785;28;20400;-63
2023/07/24 11:42:00;;;;;;;42.42;3.47;;;25.90;99.90;;;;;;5033644;28;20021;-60
2023/07/24 11:44:27;;;;;;;12.20;2.22;;;25.70;99.90;;;;;;5030962;28;20024;-63
2023/07/24 11:47:00;;;;;;;8.07;1.98;;;;;;;;;;5037504;28;20124;-62
2023/07/24 11:49:26;;;;;;;7.50;3.92;;;;;;;;;;5036393;28;20052;-64
2023/07/24 11:51:52;;;;;;;9.55;2.20;;;;;;;;;;5028064;28;20029;-62
2023/07/24 11:54:18;;;;;;;8.18;3.28;;;;;;;;;;5038174;28;20061;-65
2023/07/24 11:56:44;;;;;;;13.10;2.15;;;;;;;;;;5028668;28;20032;-64
2023/07/24 11:59:14;;;;;;;20.45;3.28;;;;;;;;;;5029101;28;20084;-62
2023/07/24 12:01:40;;;;;;;6.30;2.53;;;;;;;;;;5030846;28;20048;-62
2023/07/24 12:04:06;;;;;;;9.60;2.25;;;;;;;;;;5031314;28;20029;-62
2023/07/24 12:06:32;;;;;;;6.30;2.38;;;;;;;;;;5035086;28;20060;-63
2023/07/24 12:09:05;;;;;;;9.10;2.42;;;;;;;;;;5029427;28;20530;-64
2023/07/24 12:11:31;;;;;;;4.93;2.05;;;;;;;;;;5032787;28;20451;-64
2023/07/24 12:13:57;;;;;;;7.32;3.70;;;;;;;;;;5031023;28;20074;-63
2023/07/24 12:16:23;;;;;;;4.28;2.80;;;;;;;;;;5042186;28;20033;-64
2023/07/24 12:18:49;;;;;;;6.22;2.40;;;;;;;;;;5039457;28;20036;-65
2023/07/24 12:21:15;;;;;;;5.70;2.53;;;;;;;;;;5026875;28;20038;-64
2023/07/24 12:23:41;;;;;;;4.03;2.50;;;;;;;;;;5046636;28;20029;-64
2023/07/24 12:26:07;;;;;;;4.53;2.88;;;;;;;;;;5030813;28;20057;-63
2023/07/24 12:28:33;;;;;;;6.72;3.10;;;;;;;;;;5032902;28;20036;-64
2023/07/24 12:30:59;;;;;;;7.38;3.50;;;;;;;;;;5031188;28;20101;-65
2023/07/24 12:33:25;;;;;;;7.30;3.75;;;;;;;;;;5038313;28;20437;-62
2023/07/24 12:35:52;;;;;;;9.05;3.30;;;;;;;;;;5031811;28;20032;-65
2023/07/24 12:38:18;;;;;;;7.75;3.85;;;;;;;;;;5038860;28;20032;-64
2023/07/24 12:40:44;;;;;;;7.57;3.50;;;;;;;;;;5032686;28;20037;-66
2023/07/24 12:43:10;;;;;;;9.23;3.78;;;;;;;;;;5032530;28;20033;-65
2023/07/24 12:45:36;;;;;;;15.77;9.32;;;;;;;;;;5034489;28;20111;-65
2023/07/24 12:48:02;;;;;;;7.53;3.38;;;;;;;;;;5029010;28;20101;-64